sensor_id;sensor_type;location;lat;lon;timestamp;pressure;altitude;pressure_sealevel;temperature;humidity
12360;BME280;6244;51.460;7.090;2022-09-20T00:01:19;98782.47;;;6.57;85.84
12360;BME280;6244;51.460;7.090;2022-09-20T00:06:19;98792.81;;;6.58;85.82
12360;BME280;6244;51.460;7.090;2022-09-20T00:11:18;98788.41;;;6.59;85.91
12360;BME280;6244;51.460;7.090;2022-09-20T00:16:18;98792.06;;;6.55;86.02
12360;BME280;6244;51.460;7.090;2022-09-20T00:21:18;98788.88;;;6.48;86.05
12360;BME280;6244;51.460;7.090;2022-09-20T00:26:15;98787.28;;;6.46;86.24
12360;BME280;6244;51.460;7.090;2022-09-20T00:31:13;98798.72;;;6.42;86.29
12360;BME280;6244;51.460;7.090;2022-09-20T00:36:10;98793.13;;;6.31;86.19
12360;BME280;6244;51.460;7.090;2022-09-20T00:41:08;98799.56;;;6.22;86.43
12360;BME280;6244;51.460;7.090;2022-09-20T00:46:08;98806.47;;;6.23;86.38
12360;BME280;6244;51.460;7.090;2022-09-20T00:51:15;98800.53;;;6.20;86.64
12360;BME280;6244;51.460;7.090;2022-09-20T00:56:17;98803.78;;;6.25;86.80
12360;BME280;6244;51.460;7.090;2022-09-20T01:01:15;98794.88;;;6.30;86.83
12360;BME280;6244;51.460;7.090;2022-09-20T01:06:14;98792.59;;;6.43;86.84
12360;BME280;6244;51.460;7.090;2022-09-20T01:11:12;98791.00;;;6.40;86.58
12360;BME280;6244;51.460;7.090;2022-09-20T01:16:10;98796.06;;;6.43;86.61
12360;BME280;6244;51.460;7.090;2022-09-20T01:21:08;98792.34;;;6.49;86.42
12360;BME280;6244;51.460;7.090;2022-09-20T01:26:32;98798.72;;;6.42;86.56
12360;BME280;6244;51.460;7.090;2022-09-20T01:31:35;98792.00;;;6.36;86.50
12360;BME280;6244;51.460;7.090;2022-09-20T01:36:39;98792.41;;;6.27;86.67
12360;BME280;6244;51.460;7.090;2022-09-20T01:41:42;98797.16;;;6.18;86.71
12360;BME280;6244;51.460;7.090;2022-09-20T01:46:42;98804.19;;;6.16;87.00
12360;BME280;6244;51.460;7.090;2022-09-20T01:57:41;98803.06;;;6.21;87.07
12360;BME280;6244;51.460;7.090;2022-09-20T02:03:12;98791.00;;;6.20;87.10
12360;BME280;6244;51.460;7.090;2022-09-20T02:08:32;98786.97;;;6.13;87.06
12360;BME280;6244;51.460;7.090;2022-09-20T02:13:45;98783.97;;;6.02;87.25
12360;BME280;6244;51.460;7.090;2022-09-20T02:19:01;98793.00;;;5.94;87.17
12360;BME280;6244;51.460;7.090;2022-09-20T02:24:15;98786.25;;;5.88;87.32
12360;BME280;6244;51.460;7.090;2022-09-20T02:29:23;98783.94;;;5.81;87.59
12360;BME280;6244;51.460;7.090;2022-09-20T02:34:43;98781.53;;;5.76;87.52
12360;BME280;6244;51.460;7.090;2022-09-20T02:39:47;98786.53;;;5.81;87.63
12360;BME280;6244;51.460;7.090;2022-09-20T02:44:55;98788.66;;;5.71;87.60
12360;BME280;6244;51.460;7.090;2022-09-20T02:50:12;98788.78;;;5.68;87.74
12360;BME280;6244;51.460;7.090;2022-09-20T02:55:16;98784.00;;;5.79;87.72
12360;BME280;6244;51.460;7.090;2022-09-20T03:00:15;98791.16;;;5.96;87.63
12360;BME280;6244;51.460;7.090;2022-09-20T03:05:18;98787.22;;;6.07;87.60
12360;BME280;6244;51.460;7.090;2022-09-20T03:10:20;98775.88;;;5.88;87.79
12360;BME280;6244;51.460;7.090;2022-09-20T03:15:24;98782.88;;;5.86;87.84
12360;BME280;6244;51.460;7.090;2022-09-20T03:20:33;98784.06;;;5.78;87.78
12360;BME280;6244;51.460;7.090;2022-09-20T03:25:44;98786.53;;;5.81;87.87
12360;BME280;6244;51.460;7.090;2022-09-20T03:30:53;98784.06;;;5.78;87.78
12360;BME280;6244;51.460;7.090;2022-09-20T03:36:04;98780.81;;;5.73;87.88
12360;BME280;6244;51.460;7.090;2022-09-20T03:41:19;98783.91;;;5.82;88.00
12360;BME280;6244;51.460;7.090;2022-09-20T03:46:22;98788.25;;;5.82;88.07
12360;BME280;6244;51.460;7.090;2022-09-20T03:51:27;98783.06;;;5.82;87.89
12360;BME280;6244;51.460;7.090;2022-09-20T03:56:32;98777.00;;;5.81;87.94
12360;BME280;6244;51.460;7.090;2022-09-20T04:01:49;98778.47;;;5.88;87.98
12360;BME280;6244;51.460;7.090;2022-09-20T04:07:04;98780.34;;;5.85;88.06
12360;BME280;6244;51.460;7.090;2022-09-20T04:12:08;98775.03;;;5.88;88.02
12360;BME280;6244;51.460;7.090;2022-09-20T04:17:21;98780.13;;;5.91;87.87
12360;BME280;6244;51.460;7.090;2022-09-20T04:22:24;98779.25;;;5.90;88.14
12360;BME280;6244;51.460;7.090;2022-09-20T04:27:27;98784.09;;;5.99;88.14
12360;BME280;6244;51.460;7.090;2022-09-20T04:32:27;98784.88;;;6.01;88.05
12360;BME280;6244;51.460;7.090;2022-09-20T04:37:30;98788.91;;;6.08;88.19
12360;BME280;6244;51.460;7.090;2022-09-20T04:42:58;98787.47;;;6.21;88.18
12360;BME280;6244;51.460;7.090;2022-09-20T04:48:32;98801.06;;;6.28;88.42
12360;BME280;6244;51.460;7.090;2022-09-20T04:59:04;98804.47;;;6.30;88.15
12360;BME280;6244;51.460;7.090;2022-09-20T05:04:28;98802.63;;;6.32;88.24
12360;BME280;6244;51.460;7.090;2022-09-20T05:15:31;98802.16;;;6.42;88.28
12360;BME280;6244;51.460;7.090;2022-09-20T05:20:44;98811.81;;;6.40;88.31
12360;BME280;6244;51.460;7.090;2022-09-20T05:26:04;98814.97;;;6.47;88.28
12360;BME280;6244;51.460;7.090;2022-09-20T05:31:05;98817.38;;;6.51;88.25
12360;BME280;6244;51.460;7.090;2022-09-20T05:36:09;98818.44;;;6.47;88.16
12360;BME280;6244;51.460;7.090;2022-09-20T05:41:17;98830.13;;;6.57;88.34
12360;BME280;6244;51.460;7.090;2022-09-20T05:46:32;98832.50;;;6.63;88.23
12360;BME280;6244;51.460;7.090;2022-09-20T05:51:43;98821.75;;;6.71;88.14
12360;BME280;6244;51.460;7.090;2022-09-20T05:56:48;98827.50;;;6.77;88.35
12360;BME280;6244;51.460;7.090;2022-09-20T06:01:57;98833.50;;;6.79;88.26
12360;BME280;6244;51.460;7.090;2022-09-20T06:07:04;98839.38;;;6.84;88.17
12360;BME280;6244;51.460;7.090;2022-09-20T06:12:16;98842.53;;;6.91;88.25
12360;BME280;6244;51.460;7.090;2022-09-20T06:17:24;98836.69;;;6.86;88.06
12360;BME280;6244;51.460;7.090;2022-09-20T06:22:26;98833.97;;;6.89;88.24
12360;BME280;6244;51.460;7.090;2022-09-20T06:27:27;98839.22;;;6.87;88.30
12360;BME280;6244;51.460;7.090;2022-09-20T06:32:25;98849.72;;;6.86;88.20
12360;BME280;6244;51.460;7.090;2022-09-20T06:37:32;98851.91;;;6.95;88.15
12360;BME280;6244;51.460;7.090;2022-09-20T06:42:51;98859.41;;;7.39;88.12
12360;BME280;6244;51.460;7.090;2022-09-20T06:47:48;98862.69;;;7.80;87.77
12360;BME280;6244;51.460;7.090;2022-09-20T06:52:44;98864.06;;;8.06;86.73
12360;BME280;6244;51.460;7.090;2022-09-20T06:57:41;98860.03;;;8.17;86.02
12360;BME280;6244;51.460;7.090;2022-09-20T07:02:39;98871.28;;;8.36;86.07
12360;BME280;6244;51.460;7.090;2022-09-20T07:07:36;98877.09;;;8.24;85.51
12360;BME280;6244;51.460;7.090;2022-09-20T07:12:32;98885.06;;;8.03;85.67
12360;BME280;6244;51.460;7.090;2022-09-20T07:17:29;98889.69;;;7.98;86.22
12360;BME280;6244;51.460;7.090;2022-09-20T07:22:27;98898.53;;;8.12;86.61
12360;BME280;6244;51.460;7.090;2022-09-20T07:27:23;98895.50;;;8.57;86.41
12360;BME280;6244;51.460;7.090;2022-09-20T07:32:20;98898.63;;;8.80;86.50
12360;BME280;6244;51.460;7.090;2022-09-20T07:37:16;98901.31;;;8.96;85.74
12360;BME280;6244;51.460;7.090;2022-09-20T07:42:14;98904.78;;;9.62;85.12
12360;BME280;6244;51.460;7.090;2022-09-20T07:47:11;98911.38;;;10.31;83.13
12360;BME280;6244;51.460;7.090;2022-09-20T07:52:09;98931.69;;;13.07;77.24
12360;BME280;6244;51.460;7.090;2022-09-20T07:57:05;98939.97;;;13.13;76.45
12360;BME280;6244;51.460;7.090;2022-09-20T08:02:03;98934.44;;;12.25;75.51
12360;BME280;6244;51.460;7.090;2022-09-20T08:07:00;98937.84;;;11.15;75.62
12360;BME280;6244;51.460;7.090;2022-09-20T08:11:56;98934.94;;;11.20;76.22
12360;BME280;6244;51.460;7.090;2022-09-20T08:16:53;98946.66;;;11.14;75.55
12360;BME280;6244;51.460;7.090;2022-09-20T08:21:52;98949.84;;;11.19;75.86
12360;BME280;6244;51.460;7.090;2022-09-20T08:26:48;98940.03;;;11.37;75.66
12360;BME280;6244;51.460;7.090;2022-09-20T08:31:45;98941.88;;;11.35;75.56
12360;BME280;6244;51.460;7.090;2022-09-20T08:36:43;98947.78;;;11.24;75.06
12360;BME280;6244;51.460;7.090;2022-09-20T08:41:45;98949.13;;;11.31;75.29
12360;BME280;6244;51.460;7.090;2022-09-20T08:46:46;98954.94;;;12.06;74.58
12360;BME280;6244;51.460;7.090;2022-09-20T08:51:45;98961.13;;;12.05;74.47
12360;BME280;6244;51.460;7.090;2022-09-20T08:56:46;98967.09;;;12.21;74.40
12360;BME280;6244;51.460;7.090;2022-09-20T09:01:45;98968.88;;;12.21;74.33
12360;BME280;6244;51.460;7.090;2022-09-20T09:06:43;98960.50;;;11.74;74.08
12360;BME280;6244;51.460;7.090;2022-09-20T09:11:40;98967.19;;;11.36;73.84
12360;BME280;6244;51.460;7.090;2022-09-20T09:16:38;98973.78;;;11.57;74.05
12360;BME280;6244;51.460;7.090;2022-09-20T09:21:35;98978.28;;;12.11;73.77
12360;BME280;6244;51.460;7.090;2022-09-20T09:26:34;98980.00;;;12.65;74.52
12360;BME280;6244;51.460;7.090;2022-09-20T09:31:32;98985.38;;;13.29;76.07
12360;BME280;6244;51.460;7.090;2022-09-20T09:36:30;98985.81;;;13.36;77.48
12360;BME280;6244;51.460;7.090;2022-09-20T09:41:29;98979.78;;;12.55;76.65
12360;BME280;6244;51.460;7.090;2022-09-20T09:46:31;98972.31;;;11.81;75.46
12360;BME280;6244;51.460;7.090;2022-09-20T09:51:29;98969.84;;;11.06;73.32
12360;BME280;6244;51.460;7.090;2022-09-20T09:56:42;98966.00;;;10.98;73.01
12360;BME280;6244;51.460;7.090;2022-09-20T10:01:49;98961.63;;;11.12;72.90
12360;BME280;6244;51.460;7.090;2022-09-20T10:06:58;98961.69;;;11.40;73.38
12360;BME280;6244;51.460;7.090;2022-09-20T10:12:11;98965.91;;;11.57;73.50
12360;BME280;6244;51.460;7.090;2022-09-20T10:17:21;98960.09;;;11.52;73.75
12360;BME280;6244;51.460;7.090;2022-09-20T10:22:30;98966.13;;;11.82;73.66
12360;BME280;6244;51.460;7.090;2022-09-20T10:27:38;98970.78;;;12.19;74.61
12360;BME280;6244;51.460;7.090;2022-09-20T10:32:55;98971.16;;;11.99;74.55
12360;BME280;6244;51.460;7.090;2022-09-20T10:38:15;98971.06;;;11.86;75.14
12360;BME280;6244;51.460;7.090;2022-09-20T10:43:25;98978.94;;;13.08;75.09
12360;BME280;6244;51.460;7.090;2022-09-20T10:48:30;98982.97;;;13.64;83.61
12360;BME280;6244;51.460;7.090;2022-09-20T10:53:34;98998.81;;;16.21;84.18
12360;BME280;6244;51.460;7.090;2022-09-20T10:58:47;99004.97;;;16.55;81.16
12360;BME280;6244;51.460;7.090;2022-09-20T11:09:22;99011.84;;;16.78;78.21
12360;BME280;6244;51.460;7.090;2022-09-20T11:14:25;99007.19;;;15.26;77.43
12360;BME280;6244;51.460;7.090;2022-09-20T11:19:27;99004.00;;;14.86;75.06
12360;BME280;6244;51.460;7.090;2022-09-20T11:24:33;98999.66;;;14.98;75.01
12360;BME280;6244;51.460;7.090;2022-09-20T11:29:34;99000.44;;;14.87;76.04
12360;BME280;6244;51.460;7.090;2022-09-20T11:34:45;99015.59;;;15.65;77.59
12360;BME280;6244;51.460;7.090;2022-09-20T11:39:48;99007.41;;;15.57;75.95
12360;BME280;6244;51.460;7.090;2022-09-20T11:44:46;99006.25;;;15.03;76.33
12360;BME280;6244;51.460;7.090;2022-09-20T11:49:59;99006.47;;;15.00;71.98
12360;BME280;6244;51.460;7.090;2022-09-20T11:55:16;99012.09;;;14.96;73.74
12360;BME280;6244;51.460;7.090;2022-09-20T12:00:28;99013.78;;;14.97;74.39
12360;BME280;6244;51.460;7.090;2022-09-20T12:05:29;99015.59;;;15.31;75.06
12360;BME280;6244;51.460;7.090;2022-09-20T12:10:30;99018.91;;;15.45;76.42
12360;BME280;6244;51.460;7.090;2022-09-20T12:15:32;98999.19;;;14.57;73.84
12360;BME280;6244;51.460;7.090;2022-09-20T12:20:58;98988.84;;;13.80;71.42
12360;BME280;6244;51.460;7.090;2022-09-20T12:26:00;98991.16;;;13.22;68.82
12360;BME280;6244;51.460;7.090;2022-09-20T12:36:29;98989.69;;;14.05;71.10
12360;BME280;6244;51.460;7.090;2022-09-20T12:41:44;99001.44;;;14.37;76.14
12360;BME280;6244;51.460;7.090;2022-09-20T12:46:49;98998.69;;;14.75;72.00
12360;BME280;6244;51.460;7.090;2022-09-20T12:51:49;98991.97;;;15.86;75.40
12360;BME280;6244;51.460;7.090;2022-09-20T12:57:17;98995.47;;;15.06;74.27
12360;BME280;6244;51.460;7.090;2022-09-20T13:02:42;98987.75;;;14.69;75.29
12360;BME280;6244;51.460;7.090;2022-09-20T13:07:45;98985.94;;;14.93;74.40
12360;BME280;6244;51.460;7.090;2022-09-20T13:12:45;98984.81;;;15.08;73.43
12360;BME280;6244;51.460;7.090;2022-09-20T13:17:43;98987.69;;;14.81;74.51
12360;BME280;6244;51.460;7.090;2022-09-20T13:22:40;98991.50;;;15.01;74.97
12360;BME280;6244;51.460;7.090;2022-09-20T13:27:42;98986.91;;;14.68;74.63
12360;BME280;6244;51.460;7.090;2022-09-20T13:32:44;98990.84;;;15.21;74.86
12360;BME280;6244;51.460;7.090;2022-09-20T13:37:49;98986.34;;;14.76;73.24
12360;BME280;6244;51.460;7.090;2022-09-20T13:42:47;98988.19;;;14.86;74.49
12360;BME280;6244;51.460;7.090;2022-09-20T13:47:48;98995.47;;;15.06;74.34
12360;BME280;6244;51.460;7.090;2022-09-20T13:52:46;98989.09;;;16.11;71.29
12360;BME280;6244;51.460;7.090;2022-09-20T13:57:44;98990.28;;;15.74;65.45
12360;BME280;6244;51.460;7.090;2022-09-20T14:02:50;98990.44;;;15.03;70.70
12360;BME280;6244;51.460;7.090;2022-09-20T14:07:48;98980.31;;;14.26;73.64
12360;BME280;6244;51.460;7.090;2022-09-20T14:12:46;98975.72;;;13.55;73.73
12360;BME280;6244;51.460;7.090;2022-09-20T14:17:43;98974.81;;;13.17;71.32
12360;BME280;6244;51.460;7.090;2022-09-20T14:22:42;98974.25;;;12.99;70.23
12360;BME280;6244;51.460;7.090;2022-09-20T14:27:39;98974.09;;;12.88;72.79
12360;BME280;6244;51.460;7.090;2022-09-20T14:32:43;98981.44;;;12.83;69.19
12360;BME280;6244;51.460;7.090;2022-09-20T14:37:45;98980.81;;;12.80;66.05
12360;BME280;6244;51.460;7.090;2022-09-20T14:42:47;98984.03;;;12.70;66.78
12360;BME280;6244;51.460;7.090;2022-09-20T14:47:53;98982.53;;;12.66;66.06
12360;BME280;6244;51.460;7.090;2022-09-20T14:53:21;98992.75;;;12.71;64.59
12360;BME280;6244;51.460;7.090;2022-09-20T14:58:17;98990.22;;;12.69;63.19
12360;BME280;6244;51.460;7.090;2022-09-20T15:03:16;98988.75;;;12.65;62.48
12360;BME280;6244;51.460;7.090;2022-09-20T15:08:19;98989.91;;;12.61;63.16
12360;BME280;6244;51.460;7.090;2022-09-20T15:13:16;98989.97;;;13.01;64.34
12360;BME280;6244;51.460;7.090;2022-09-20T15:18:19;98991.16;;;12.95;64.76
12360;BME280;6244;51.460;7.090;2022-09-20T15:23:16;98994.47;;;12.72;63.37
12360;BME280;6244;51.460;7.090;2022-09-20T15:28:15;98994.41;;;12.59;61.61
12360;BME280;6244;51.460;7.090;2022-09-20T15:33:12;98986.13;;;12.65;59.65
12360;BME280;6244;51.460;7.090;2022-09-20T15:38:10;98991.06;;;12.70;61.76
12360;BME280;6244;51.460;7.090;2022-09-20T15:43:12;98991.56;;;12.62;63.80
12360;BME280;6244;51.460;7.090;2022-09-20T15:48:11;98981.13;;;12.75;59.52
12360;BME280;6244;51.460;7.090;2022-09-20T15:53:09;98980.06;;;12.77;59.67
12360;BME280;6244;51.460;7.090;2022-09-20T15:58:06;98992.56;;;12.74;58.77
12360;BME280;6244;51.460;7.090;2022-09-20T16:03:03;98994.00;;;12.65;61.23
12360;BME280;6244;51.460;7.090;2022-09-20T16:08:01;98993.78;;;12.42;58.09
12360;BME280;6244;51.460;7.090;2022-09-20T16:12:58;98993.94;;;12.26;58.93
12360;BME280;6244;51.460;7.090;2022-09-20T16:17:54;98992.25;;;12.11;56.52
12360;BME280;6244;51.460;7.090;2022-09-20T16:23:12;98993.59;;;11.90;57.02
12360;BME280;6244;51.460;7.090;2022-09-20T16:28:08;98991.63;;;11.66;55.53
12360;BME280;6244;51.460;7.090;2022-09-20T16:33:06;98997.75;;;11.51;56.09
12360;BME280;6244;51.460;7.090;2022-09-20T16:38:06;98991.72;;;11.35;60.49
12360;BME280;6244;51.460;7.090;2022-09-20T16:43:08;98988.81;;;11.25;62.12
12360;BME280;6244;51.460;7.090;2022-09-20T16:48:05;98995.25;;;11.20;62.71
12360;BME280;6244;51.460;7.090;2022-09-20T16:53:02;99000.22;;;11.10;63.39
12360;BME280;6244;51.460;7.090;2022-09-20T16:57:59;99002.69;;;10.98;63.69
12360;BME280;6244;51.460;7.090;2022-09-20T17:02:57;99006.91;;;11.00;64.30
12360;BME280;6244;51.460;7.090;2022-09-20T17:07:53;99012.50;;;10.94;65.51
12360;BME280;6244;51.460;7.090;2022-09-20T17:12:50;99014.88;;;10.83;65.71
12360;BME280;6244;51.460;7.090;2022-09-20T17:17:51;99016.06;;;10.77;65.98
12360;BME280;6244;51.460;7.090;2022-09-20T17:22:49;99018.44;;;10.66;67.14
12360;BME280;6244;51.460;7.090;2022-09-20T17:27:48;99020.25;;;10.50;69.48
12360;BME280;6244;51.460;7.090;2022-09-20T17:32:45;99018.22;;;10.40;71.12
12360;BME280;6244;51.460;7.090;2022-09-20T17:37:44;99027.59;;;10.44;71.67
12360;BME280;6244;51.460;7.090;2022-09-20T17:42:42;99025.66;;;10.47;71.92
12360;BME280;6244;51.460;7.090;2022-09-20T17:47:40;99039.50;;;10.34;71.84
12360;BME280;6244;51.460;7.090;2022-09-20T17:52:36;99039.50;;;10.18;72.61
12360;BME280;6244;51.460;7.090;2022-09-20T17:57:33;99045.13;;;10.11;72.80
12360;BME280;6244;51.460;7.090;2022-09-20T18:02:32;99046.00;;;10.11;72.64
12360;BME280;6244;51.460;7.090;2022-09-20T18:07:29;99044.97;;;9.97;72.52
12360;BME280;6244;51.460;7.090;2022-09-20T18:12:28;99053.56;;;9.83;72.35
12360;BME280;6244;51.460;7.090;2022-09-20T18:17:24;99057.13;;;9.82;72.42
12360;BME280;6244;51.460;7.090;2022-09-20T18:22:22;99054.97;;;9.73;72.55
12360;BME280;6244;51.460;7.090;2022-09-20T18:27:18;99061.97;;;9.73;72.50
12360;BME280;6244;51.460;7.090;2022-09-20T18:32:15;99064.16;;;9.65;72.75
12360;BME280;6244;51.460;7.090;2022-09-20T18:37:12;99064.25;;;9.46;72.83
12360;BME280;6244;51.460;7.090;2022-09-20T18:42:12;99066.63;;;9.34;73.26
12360;BME280;6244;51.460;7.090;2022-09-20T18:47:09;99062.16;;;9.36;73.52
12360;BME280;6244;51.460;7.090;2022-09-20T18:52:05;99066.94;;;9.28;73.39
12360;BME280;6244;51.460;7.090;2022-09-20T18:57:07;99061.31;;;9.18;73.98
12360;BME280;6244;51.460;7.090;2022-09-20T19:02:30;99066.97;;;9.09;74.17
12360;BME280;6244;51.460;7.090;2022-09-20T19:07:36;99068.50;;;8.96;74.67
12360;BME280;6244;51.460;7.090;2022-09-20T19:12:41;99072.88;;;8.95;75.01
12360;BME280;6244;51.460;7.090;2022-09-20T19:17:54;99072.06;;;8.95;75.20
12360;BME280;6244;51.460;7.090;2022-09-20T19:23:02;99074.66;;;8.95;75.23
12360;BME280;6244;51.460;7.090;2022-09-20T19:28:07;99089.56;;;8.93;75.76
12360;BME280;6244;51.460;7.090;2022-09-20T19:33:11;99090.34;;;8.95;75.88
12360;BME280;6244;51.460;7.090;2022-09-20T19:38:14;99100.31;;;8.87;76.42
12360;BME280;6244;51.460;7.090;2022-09-20T19:43:25;99102.00;;;8.69;76.54
12360;BME280;6244;51.460;7.090;2022-09-20T19:48:34;99106.97;;;8.38;76.92
12360;BME280;6244;51.460;7.090;2022-09-20T19:53:33;99111.13;;;8.24;77.37
12360;BME280;6244;51.460;7.090;2022-09-20T19:58:30;99118.41;;;8.16;77.36
12360;BME280;6244;51.460;7.090;2022-09-20T20:03:27;99113.34;;;7.93;77.49
12360;BME280;6244;51.460;7.090;2022-09-20T20:08:30;99116.38;;;7.84;78.04
12360;BME280;6244;51.460;7.090;2022-09-20T20:13:34;99115.72;;;7.79;78.02
12360;BME280;6244;51.460;7.090;2022-09-20T20:19:03;99117.63;;;7.75;78.27
12360;BME280;6244;51.460;7.090;2022-09-20T20:24:09;99127.25;;;7.73;78.34
12360;BME280;6244;51.460;7.090;2022-09-20T20:29:12;99133.72;;;7.65;78.44
12360;BME280;6244;51.460;7.090;2022-09-20T20:34:09;99134.69;;;7.62;78.60
12360;BME280;6244;51.460;7.090;2022-09-20T20:39:11;99138.66;;;7.51;78.88
12360;BME280;6244;51.460;7.090;2022-09-20T20:44:08;99141.41;;;7.48;79.30
12360;BME280;6244;51.460;7.090;2022-09-20T20:49:04;99138.13;;;7.43;79.74
12360;BME280;6244;51.460;7.090;2022-09-20T20:54:02;99136.44;;;7.42;80.03
12360;BME280;6244;51.460;7.090;2022-09-20T20:59:02;99143.53;;;7.38;80.08
12360;BME280;6244;51.460;7.090;2022-09-20T21:04:01;99143.22;;;7.24;80.19
12360;BME280;6244;51.460;7.090;2022-09-20T21:08:58;99147.69;;;7.00;80.72
12360;BME280;6244;51.460;7.090;2022-09-20T21:13:55;99145.31;;;6.94;81.46
12360;BME280;6244;51.460;7.090;2022-09-20T21:18:54;99151.78;;;6.84;81.75
12360;BME280;6244;51.460;7.090;2022-09-20T21:23:52;99149.25;;;6.83;82.22
12360;BME280;6244;51.460;7.090;2022-09-20T21:28:50;99160.91;;;6.73;82.51
12360;BME280;6244;51.460;7.090;2022-09-20T21:33:48;99156.63;;;6.49;83.01
12360;BME280;6244;51.460;7.090;2022-09-20T21:38:46;99147.81;;;6.30;83.63
12360;BME280;6244;51.460;7.090;2022-09-20T21:43:44;99147.19;;;6.23;84.40
12360;BME280;6244;51.460;7.090;2022-09-20T21:48:41;99152.88;;;6.10;84.97
12360;BME280;6244;51.460;7.090;2022-09-20T21:53:38;99153.63;;;6.13;85.11
12360;BME280;6244;51.460;7.090;2022-09-20T21:58:37;99153.84;;;6.30;84.92
12360;BME280;6244;51.460;7.090;2022-09-20T22:03:35;99153.97;;;6.27;84.90
12360;BME280;6244;51.460;7.090;2022-09-20T22:08:32;99156.63;;;6.26;84.88
12360;BME280;6244;51.460;7.090;2022-09-20T22:13:28;99159.75;;;6.35;84.63
12360;BME280;6244;51.460;7.090;2022-09-20T22:18:26;99171.50;;;6.45;84.11
12360;BME280;6244;51.460;7.090;2022-09-20T22:23:23;99164.50;;;6.47;83.39
12360;BME280;6244;51.460;7.090;2022-09-20T22:28:20;99160.72;;;6.33;83.20
12360;BME280;6244;51.460;7.090;2022-09-20T22:33:16;99168.44;;;6.11;83.78
12360;BME280;6244;51.460;7.090;2022-09-20T22:38:14;99168.81;;;6.25;83.88
12360;BME280;6244;51.460;7.090;2022-09-20T22:43:11;99170.47;;;6.26;83.76
12360;BME280;6244;51.460;7.090;2022-09-20T22:48:07;99168.84;;;6.24;83.15
12360;BME280;6244;51.460;7.090;2022-09-20T22:53:06;99172.00;;;6.09;82.71
12360;BME280;6244;51.460;7.090;2022-09-20T22:58:04;99172.44;;;5.97;82.85
12360;BME280;6244;51.460;7.090;2022-09-20T23:03:00;99166.66;;;5.89;83.36
12360;BME280;6244;51.460;7.090;2022-09-20T23:07:57;99172.97;;;5.80;83.39
12360;BME280;6244;51.460;7.090;2022-09-20T23:12:53;99174.28;;;5.93;83.43
12360;BME280;6244;51.460;7.090;2022-09-20T23:17:51;99174.22;;;5.95;83.23
12360;BME280;6244;51.460;7.090;2022-09-20T23:22:48;99171.53;;;5.98;82.82
12360;BME280;6244;51.460;7.090;2022-09-20T23:27:44;99165.16;;;5.82;82.34
12360;BME280;6244;51.460;7.090;2022-09-20T23:32:41;99165.94;;;5.84;82.67
12360;BME280;6244;51.460;7.090;2022-09-20T23:37:38;99164.38;;;5.78;82.50
12360;BME280;6244;51.460;7.090;2022-09-20T23:42:35;99172.19;;;5.78;82.27
12360;BME280;6244;51.460;7.090;2022-09-20T23:47:31;99170.88;;;5.65;82.32
12360;BME280;6244;51.460;7.090;2022-09-20T23:52:28;99163.09;;;5.65;82.70
12360;BME280;6244;51.460;7.090;2022-09-20T23:57:28;99160.84;;;5.54;82.55
